Terminal Aerodrome Forecast
Issued by NWS

Home | Current Version | Previous Version | Text Only | Print | Product List | Glossary Off
Versions: 1 2 3 4 5 6 7 8 9 10 11 12 13 14 15

157
FTUS43 KICT 212322
TAFSLN
TAF
KSLN 212322Z 2200/2224 12013KT P6SM OVC030
      TEMPO 2200/2204 OVC035
     FM220900 13010KT P6SM OVC020
     FM221700 15014G20KT P6SM OVC030=

USA.gov is the U.S. government's official web portal to all federal, state and local government web resources and services.